createdAt,value
2018-01-19T00:00:59.090Z,99065.50
2018-01-19T00:02:05.766Z,99070.38
2018-01-19T00:03:12.017Z,99073.53
2018-01-19T00:04:18.294Z,99077.92
2018-01-19T00:05:24.530Z,99075.70
2018-01-19T00:06:30.786Z,99085.83
2018-01-19T00:07:37.069Z,99077.61
2018-01-19T00:08:45.286Z,99082.32
2018-01-19T00:09:52.054Z,99081.97
2018-01-19T00:10:58.262Z,99081.66
2018-01-19T00:12:04.139Z,99089.04
2018-01-19T00:13:10.038Z,99087.63
2018-01-19T00:14:20.293Z,99092.88
2018-01-19T00:15:26.777Z,99094.84
2018-01-19T00:16:32.983Z,99090.45
2018-01-19T00:17:42.148Z,99093.26
2018-01-19T00:18:48.354Z,99088.92
2018-01-19T00:19:54.582Z,99093.30
2018-01-19T00:21:00.606Z,99092.60
2018-01-19T00:22:06.883Z,99095.95
2018-01-19T00:23:19.717Z,99094.80
2018-01-19T00:24:25.944Z,99100.55
2018-01-19T00:25:38.309Z,99101.73
2018-01-19T00:26:44.766Z,99095.45
2018-01-19T00:27:50.977Z,99099.20
2018-01-19T00:28:57.234Z,99101.68
2018-01-19T00:30:03.540Z,99099.92
2018-01-19T00:31:09.774Z,99098.08
2018-01-19T00:32:15.863Z,99097.56
2018-01-19T00:33:22.091Z,99100.73
2018-01-19T00:34:28.210Z,99096.16
2018-01-19T00:35:35.216Z,99092.91
2018-01-19T00:36:41.410Z,99092.63
2018-01-19T00:37:47.330Z,99094.91
2018-01-19T00:38:55.891Z,99098.14
2018-01-19T00:40:02.132Z,99098.14
2018-01-19T00:41:08.350Z,99107.63
2018-01-19T00:42:14.544Z,99109.27
2018-01-19T00:43:20.766Z,99108.80
2018-01-19T00:44:26.909Z,99107.59
2018-01-19T00:45:33.056Z,99108.15
2018-01-19T00:46:39.299Z,99111.73
2018-01-19T00:47:45.518Z,99103.55
2018-01-19T00:48:51.634Z,99107.75
2018-01-19T00:49:57.779Z,99113.67
2018-01-19T00:51:04.453Z,99111.71
2018-01-19T00:52:10.619Z,99111.05
2018-01-19T00:53:16.844Z,99111.36
2018-01-19T00:54:23.212Z,99118.70
2018-01-19T00:55:29.438Z,99119.92
2018-01-19T00:56:35.688Z,99119.58
2018-01-19T00:57:41.897Z,99116.37
2018-01-19T00:58:48.132Z,99119.71
2018-01-19T00:59:54.290Z,99113.94
2018-01-19T01:01:00.487Z,99120.56
2018-01-19T01:02:06.614Z,99114.75
2018-01-19T01:03:12.727Z,99113.88
2018-01-19T01:04:18.966Z,99119.05
2018-01-19T01:05:25.300Z,99122.65
2018-01-19T01:06:31.490Z,99122.59
2018-01-19T01:07:37.719Z,99120.83
2018-01-19T01:08:44.023Z,99118.90
2018-01-19T01:09:50.207Z,99125.25
2018-01-19T01:10:56.385Z,99125.94
2018-01-19T01:12:02.680Z,99129.55
2018-01-19T01:13:19.783Z,99128.66
2018-01-19T01:14:25.994Z,99122.21
2018-01-19T01:15:32.155Z,99124.34
2018-01-19T01:16:38.419Z,99124.37
2018-01-19T01:17:44.602Z,99125.66
2018-01-19T01:18:50.885Z,99129.28
2018-01-19T01:19:57.151Z,99124.80
2018-01-19T01:21:03.387Z,99124.18
2018-01-19T01:22:09.717Z,99123.95
2018-01-19T01:23:15.935Z,99129.68
2018-01-19T01:24:22.296Z,99128.33
2018-01-19T01:25:28.750Z,99126.97
2018-01-19T01:26:34.702Z,99129.08
2018-01-19T01:27:40.850Z,99127.17
2018-01-19T01:28:47.129Z,99129.20
2018-01-19T01:29:53.315Z,99126.91
2018-01-19T01:30:59.552Z,99133.64
2018-01-19T01:32:05.807Z,99136.80
2018-01-19T01:33:11.790Z,99128.33
2018-01-19T01:34:18.017Z,99132.30
2018-01-19T01:35:24.256Z,99135.74
2018-01-19T01:36:31.263Z,99128.79
2018-01-19T01:37:37.972Z,99126.95
2018-01-19T01:38:44.289Z,99120.38
2018-01-19T01:39:50.512Z,99126.53
2018-01-19T01:40:56.689Z,99121.72
2018-01-19T01:42:02.916Z,99125.14
2018-01-19T01:43:08.903Z,99128.23
2018-01-19T01:44:15.132Z,99126.13
2018-01-19T01:45:21.272Z,99125.08
2018-01-19T01:46:27.223Z,99119.32
2018-01-19T01:47:33.694Z,99120.19
2018-01-19T01:48:40.002Z,99129.52
2018-01-19T01:49:46.489Z,99129.62
2018-01-19T01:50:52.694Z,99132.56
2018-01-19T01:51:58.944Z,99126.41
2018-01-19T01:53:05.345Z,99132.34
2018-01-19T01:54:12.354Z,99133.98
2018-01-19T01:55:18.562Z,99128.24
2018-01-19T01:56:24.750Z,99137.05
2018-01-19T01:57:31.088Z,99135.48
2018-01-19T01:58:37.972Z,99135.41
2018-01-19T01:59:44.162Z,99134.08
2018-01-19T02:00:50.334Z,99132.58
2018-01-19T02:01:56.615Z,99132.27
2018-01-19T02:03:02.890Z,99138.63
2018-01-19T02:04:09.159Z,99138.34
2018-01-19T02:05:15.308Z,99137.70
2018-01-19T02:06:21.515Z,99134.75
2018-01-19T02:07:27.616Z,99138.71
2018-01-19T02:08:33.900Z,99135.77
2018-01-19T02:09:39.903Z,99139.02
2018-01-19T02:10:46.233Z,99137.72
2018-01-19T02:11:52.600Z,99135.67
2018-01-19T02:12:58.745Z,99139.16
2018-01-19T02:14:04.938Z,99143.31
2018-01-19T02:15:11.214Z,99134.88
2018-01-19T02:16:17.471Z,99137.86
2018-01-19T02:17:23.068Z,99140.13
2018-01-19T02:18:34.421Z,99141.75
2018-01-19T02:19:40.420Z,99138.69
2018-01-19T02:20:46.830Z,99146.78
2018-01-19T02:21:53.143Z,99146.87
2018-01-19T02:23:00.010Z,99144.33
2018-01-19T02:24:11.664Z,99136.11
2018-01-19T02:25:17.860Z,99144.44
2018-01-19T02:26:24.059Z,99146.80
2018-01-19T02:27:30.379Z,99148.05
2018-01-19T02:28:36.516Z,99146.16
2018-01-19T02:29:42.701Z,99150.08
2018-01-19T02:30:48.873Z,99148.08
2018-01-19T02:31:55.761Z,99148.91
2018-01-19T02:33:02.101Z,99149.38
2018-01-19T02:34:08.470Z,99148.98
2018-01-19T02:35:14.772Z,99147.92
2018-01-19T02:36:20.728Z,99152.54
2018-01-19T02:37:27.006Z,99156.77
2018-01-19T02:38:33.239Z,99155.97
2018-01-19T02:39:39.494Z,99154.82
2018-01-19T02:40:45.748Z,99157.63
2018-01-19T02:41:51.766Z,99151.49
2018-01-19T02:42:57.689Z,99156.53
2018-01-19T02:44:04.058Z,99159.36
2018-01-19T02:45:10.473Z,99164.55
2018-01-19T02:46:16.687Z,99160.79
2018-01-19T02:47:22.927Z,99157.59
2018-01-19T02:48:29.496Z,99160.23
2018-01-19T02:49:35.807Z,99162.69
2018-01-19T02:50:42.062Z,99163.98
2018-01-19T02:51:48.229Z,99157.73
2018-01-19T02:52:54.350Z,99159.01
2018-01-19T02:54:00.522Z,99154.44
2018-01-19T02:55:06.686Z,99155.47
2018-01-19T02:56:12.935Z,99155.32
2018-01-19T02:57:19.832Z,99160.70
2018-01-19T02:58:25.994Z,99165.92
2018-01-19T02:59:32.169Z,99162.06
2018-01-19T03:00:38.450Z,99161.95
2018-01-19T03:01:44.567Z,99172.77
2018-01-19T03:02:50.714Z,99172.88
2018-01-19T03:03:57.200Z,99174.11
2018-01-19T03:05:03.422Z,99173.09
2018-01-19T03:06:09.600Z,99173.38
2018-01-19T03:07:18.220Z,99177.33
2018-01-19T03:08:24.609Z,99177.69
2018-01-19T03:09:30.837Z,99178.40
2018-01-19T03:10:37.157Z,99183.59
2018-01-19T03:11:43.489Z,99182.45
2018-01-19T03:12:49.651Z,99181.95
2018-01-19T03:13:55.868Z,99185.87
2018-01-19T03:15:02.053Z,99186.73
2018-01-19T03:16:08.243Z,99190.38
2018-01-19T03:17:14.740Z,99187.58
2018-01-19T03:18:20.947Z,99190.42
2018-01-19T03:19:27.273Z,99191.70
2018-01-19T03:20:33.491Z,99191.38
2018-01-19T03:21:39.729Z,99192.73
2018-01-19T03:22:46.004Z,99194.63
2018-01-19T03:23:52.251Z,99195.80
2018-01-19T03:24:59.296Z,99190.48
2018-01-19T03:26:05.526Z,99190.02
2018-01-19T03:27:16.615Z,99193.34
2018-01-19T03:28:22.866Z,99194.34
2018-01-19T03:29:29.194Z,99187.93
2018-01-19T03:30:35.470Z,99196.61
2018-01-19T03:31:41.694Z,99195.95
2018-01-19T03:32:47.962Z,99201.41
2018-01-19T03:33:54.115Z,99196.97
2018-01-19T03:35:00.440Z,99198.25
2018-01-19T03:36:06.662Z,99207.98
2018-01-19T03:37:12.873Z,99211.18
2018-01-19T03:38:19.142Z,99206.77
2018-01-19T03:39:25.445Z,99212.01
2018-01-19T03:40:31.757Z,99214.89
2018-01-19T03:41:38.092Z,99200.92
2018-01-19T03:42:44.386Z,99210.59
2018-01-19T03:43:50.590Z,99215.52
2018-01-19T03:44:57.414Z,99210.64
2018-01-19T03:46:04.414Z,99220.23
2018-01-19T03:47:10.582Z,99215.90
2018-01-19T03:48:16.898Z,99208.72
2018-01-19T03:49:23.267Z,99211.36
2018-01-19T03:50:29.361Z,99208.20
2018-01-19T03:51:36.563Z,99211.58
2018-01-19T03:52:42.958Z,99201.85
2018-01-19T03:53:49.219Z,99212.66
2018-01-19T03:54:55.457Z,99209.47
2018-01-19T03:56:01.497Z,99210.45
2018-01-19T03:57:07.763Z,99207.73
2018-01-19T03:58:14.000Z,99215.81
2018-01-19T03:59:19.929Z,99207.56
2018-01-19T04:00:26.136Z,99218.97
2018-01-19T04:01:32.580Z,99208.84
2018-01-19T04:02:39.151Z,99207.23
2018-01-19T04:03:45.455Z,99208.44
2018-01-19T04:04:51.745Z,99216.69
2018-01-19T04:05:58.021Z,99217.45
2018-01-19T04:07:04.261Z,99217.91
2018-01-19T04:08:10.472Z,99222.13
2018-01-19T04:09:16.309Z,99220.58
2018-01-19T04:10:22.626Z,99219.35
2018-01-19T04:11:29.474Z,99218.72
2018-01-19T04:12:35.929Z,99218.19
2018-01-19T04:13:42.613Z,99213.66
2018-01-19T04:14:49.394Z,99213.48
2018-01-19T04:15:55.331Z,99220.38
2018-01-19T04:17:01.635Z,99218.97
2018-01-19T04:18:07.896Z,99213.66
2018-01-19T04:19:13.772Z,99217.92
2018-01-19T04:20:19.981Z,99223.04
2018-01-19T04:21:26.293Z,99226.10
2018-01-19T04:22:32.547Z,99226.56
2018-01-19T04:23:38.787Z,99227.33
2018-01-19T04:24:44.257Z,99230.16
2018-01-19T04:25:50.614Z,99229.23
2018-01-19T04:26:56.654Z,99230.27
2018-01-19T04:28:03.555Z,99235.15
2018-01-19T04:29:09.859Z,99237.09
2018-01-19T04:30:16.333Z,99241.70
2018-01-19T04:31:22.894Z,99239.06
2018-01-19T04:32:30.712Z,99242.48
2018-01-19T04:33:36.875Z,99241.32
2018-01-19T04:34:42.988Z,99243.94
2018-01-19T04:35:49.090Z,99248.53
2018-01-19T04:36:55.139Z,99239.02
2018-01-19T04:38:01.433Z,99249.98
2018-01-19T04:39:07.664Z,99250.42
2018-01-19T04:40:13.664Z,99249.52
2018-01-19T04:41:19.816Z,99249.52
2018-01-19T04:42:26.625Z,99249.25
2018-01-19T04:43:33.469Z,99256.42
2018-01-19T04:44:39.727Z,99256.00
2018-01-19T04:45:45.684Z,99254.52
2018-01-19T04:46:51.849Z,99256.30
2018-01-19T04:47:57.866Z,99259.19
2018-01-19T04:49:03.889Z,99253.87
2018-01-19T04:50:10.574Z,99256.67
2018-01-19T04:51:16.766Z,99256.48
2018-01-19T04:52:23.032Z,99262.55
2018-01-19T04:53:29.117Z,99265.94
2018-01-19T04:54:35.428Z,99264.95
2018-01-19T04:55:42.211Z,99262.84
2018-01-19T04:56:48.501Z,99267.57
2018-01-19T04:57:54.804Z,99262.42
2018-01-19T04:59:01.107Z,99266.63
2018-01-19T05:00:07.927Z,99269.24
2018-01-19T05:01:14.303Z,99276.87
2018-01-19T05:02:25.314Z,99278.63
2018-01-19T05:03:32.288Z,99276.63
2018-01-19T05:04:42.188Z,99271.10
2018-01-19T05:05:50.743Z,99273.34
2018-01-19T05:06:58.929Z,99273.29
2018-01-19T05:08:07.637Z,99279.28
2018-01-19T05:09:16.232Z,99278.95
2018-01-19T05:10:27.867Z,99278.27
2018-01-19T05:11:35.220Z,99279.06
2018-01-19T05:12:42.903Z,99277.14
2018-01-19T05:13:51.762Z,99283.88
2018-01-19T05:14:59.087Z,99281.09
2018-01-19T05:16:07.505Z,99279.53
2018-01-19T05:17:14.883Z,99283.80
2018-01-19T05:18:21.394Z,99284.50
2018-01-19T05:19:27.634Z,99283.36
2018-01-19T05:20:33.875Z,99285.60
2018-01-19T05:21:40.141Z,99288.44
2018-01-19T05:22:46.200Z,99294.38
2018-01-19T05:23:52.413Z,99296.81
2018-01-19T05:24:58.695Z,99298.89
2018-01-19T05:26:04.808Z,99295.55
2018-01-19T05:27:11.071Z,99296.94
2018-01-19T05:28:18.305Z,99304.73
2018-01-19T05:29:26.320Z,99296.98
2018-01-19T05:30:32.551Z,99300.74
2018-01-19T05:31:38.740Z,99294.11
2018-01-19T05:32:44.953Z,99300.72
2018-01-19T05:33:51.399Z,99303.25
2018-01-19T05:34:58.000Z,99301.90
2018-01-19T05:36:04.275Z,99304.42
2018-01-19T05:37:10.505Z,99300.10
2018-01-19T05:38:16.891Z,99300.17
2018-01-19T05:39:23.119Z,99299.36
2018-01-19T05:40:29.940Z,99293.80
2018-01-19T05:41:36.184Z,99296.23
2018-01-19T05:42:42.364Z,99299.85
2018-01-19T05:43:48.579Z,99299.00
2018-01-19T05:44:54.719Z,99305.95
2018-01-19T05:46:01.006Z,99309.52
2018-01-19T05:47:07.838Z,99311.69
2018-01-19T05:48:14.576Z,99312.31
2018-01-19T05:49:21.349Z,99310.16
2018-01-19T05:50:27.932Z,99305.74
2018-01-19T05:51:34.048Z,99309.59
2018-01-19T05:52:40.264Z,99310.14
2018-01-19T05:53:46.616Z,99313.59
2018-01-19T05:54:52.905Z,99313.39
2018-01-19T05:55:58.807Z,99311.05
2018-01-19T05:57:05.094Z,99316.61
2018-01-19T05:58:14.637Z,99314.30
2018-01-19T05:59:22.042Z,99317.19
2018-01-19T06:00:29.932Z,99323.42
2018-01-19T06:01:37.000Z,99320.17
2018-01-19T06:02:44.962Z,99327.69
2018-01-19T06:03:53.380Z,99331.16
2018-01-19T06:05:00.332Z,99334.17
2018-01-19T06:06:07.521Z,99329.94
2018-01-19T06:07:15.708Z,99339.91
2018-01-19T06:08:22.973Z,99336.95
2018-01-19T06:09:30.372Z,99342.48
2018-01-19T06:10:39.899Z,99339.45
2018-01-19T06:11:47.513Z,99343.73
2018-01-19T06:12:54.931Z,99347.76
2018-01-19T06:14:02.851Z,99346.56
2018-01-19T06:15:11.288Z,99345.83
2018-01-19T06:16:18.911Z,99352.50
2018-01-19T06:17:26.200Z,99355.19
2018-01-19T06:18:33.464Z,99357.80
2018-01-19T06:19:40.110Z,99353.47
2018-01-19T06:20:47.392Z,99354.14
2018-01-19T06:21:54.411Z,99359.98
2018-01-19T06:23:06.320Z,99361.46
2018-01-19T06:24:13.465Z,99357.62
2018-01-19T06:25:20.732Z,99354.38
2018-01-19T06:26:27.857Z,99357.06
2018-01-19T06:27:35.025Z,99355.95
2018-01-19T06:28:42.324Z,99352.93
2018-01-19T06:29:50.072Z,99358.00
2018-01-19T06:30:59.047Z,99354.17
2018-01-19T06:32:06.144Z,99355.19
2018-01-19T06:33:13.676Z,99356.30
2018-01-19T06:34:22.198Z,99353.09
2018-01-19T06:35:29.414Z,99358.17
2018-01-19T06:36:36.589Z,99359.46
2018-01-19T06:37:44.506Z,99363.86
2018-01-19T06:38:51.674Z,99357.58
2018-01-19T06:39:58.946Z,99359.89
2018-01-19T06:41:06.568Z,99362.64
2018-01-19T06:42:14.132Z,99360.74
2018-01-19T06:43:22.443Z,99358.89
2018-01-19T06:44:29.978Z,99368.42
2018-01-19T06:45:37.030Z,99358.66
2018-01-19T06:46:44.397Z,99359.52
2018-01-19T06:47:57.673Z,99361.09
2018-01-19T06:49:04.917Z,99365.99
2018-01-19T06:50:12.242Z,99371.56
2018-01-19T06:51:18.935Z,99369.81
2018-01-19T06:52:25.589Z,99372.00
2018-01-19T06:53:31.841Z,99371.66
2018-01-19T06:54:37.996Z,99369.34
2018-01-19T06:55:44.211Z,99368.73
2018-01-19T06:56:50.195Z,99371.34
2018-01-19T06:57:56.412Z,99376.94
2018-01-19T06:59:02.697Z,99371.42
2018-01-19T07:00:08.457Z,99388.59
2018-01-19T07:01:14.723Z,99388.06
2018-01-19T07:02:20.954Z,99385.16
2018-01-19T07:03:27.212Z,99387.09
2018-01-19T07:04:33.358Z,99384.14
2018-01-19T07:05:39.551Z,99386.97
2018-01-19T07:06:45.784Z,99391.13
2018-01-19T07:07:55.441Z,99394.94
2018-01-19T07:09:03.158Z,99401.65
2018-01-19T07:10:09.065Z,99403.92
2018-01-19T07:11:15.293Z,99400.05
2018-01-19T07:12:21.622Z,99400.20
2018-01-19T07:13:27.876Z,99403.95
2018-01-19T07:14:34.154Z,99401.65
2018-01-19T07:15:40.457Z,99396.35
2018-01-19T07:16:46.703Z,99397.48
2018-01-19T07:17:52.862Z,99400.84
2018-01-19T07:18:59.021Z,99407.08
2018-01-19T07:20:04.594Z,99408.63
2018-01-19T07:21:10.808Z,99405.86
2018-01-19T07:22:16.915Z,99409.57
2018-01-19T07:23:23.211Z,99416.17
2018-01-19T07:24:29.257Z,99415.89
2018-01-19T07:25:35.458Z,99414.42
2018-01-19T07:26:41.693Z,99415.48
2018-01-19T07:27:47.850Z,99413.25
2018-01-19T07:28:53.803Z,99414.87
2018-01-19T07:30:00.060Z,99409.77
2018-01-19T07:31:06.356Z,99417.41
2018-01-19T07:32:12.545Z,99421.31
2018-01-19T07:33:18.800Z,99416.77
2018-01-19T07:34:24.965Z,99419.80
2018-01-19T07:35:31.303Z,99422.29
2018-01-19T07:36:37.482Z,99425.84
2018-01-19T07:37:43.719Z,99424.42
2018-01-19T07:38:49.978Z,99425.45
2018-01-19T07:39:55.987Z,99430.09
2018-01-19T07:41:01.935Z,99429.48
2018-01-19T07:42:07.915Z,99436.37
2018-01-19T07:43:13.930Z,99434.98
2018-01-19T07:44:20.047Z,99434.74
2018-01-19T07:45:26.280Z,99434.95
2018-01-19T07:46:32.522Z,99435.70
2018-01-19T07:47:38.810Z,99439.56
2018-01-19T07:48:45.034Z,99433.02
2018-01-19T07:49:51.264Z,99433.46
2018-01-19T07:51:02.652Z,99442.93
2018-01-19T07:52:08.779Z,99435.92
2018-01-19T07:53:14.906Z,99439.38
2018-01-19T07:54:20.754Z,99441.05
2018-01-19T07:55:27.012Z,99446.73
2018-01-19T07:56:33.136Z,99447.17
2018-01-19T07:57:38.990Z,99444.89
2018-01-19T07:58:45.275Z,99447.75
2018-01-19T07:59:51.479Z,99444.50
2018-01-19T08:00:58.062Z,99451.52
2018-01-19T08:02:04.261Z,99455.08
2018-01-19T08:03:10.545Z,99457.80
2018-01-19T08:04:17.070Z,99458.10
2018-01-19T08:05:23.286Z,99452.86
2018-01-19T08:06:29.448Z,99453.17
2018-01-19T08:07:35.770Z,99456.52
2018-01-19T08:08:42.012Z,99456.77
2018-01-19T08:09:48.517Z,99461.83
2018-01-19T08:10:54.717Z,99464.41
2018-01-19T08:12:01.427Z,99462.28
2018-01-19T08:13:07.760Z,99467.86
2018-01-19T08:14:13.903Z,99467.86
2018-01-19T08:15:20.164Z,99471.80
2018-01-19T08:16:26.379Z,99474.28
2018-01-19T08:17:32.620Z,99472.42
2018-01-19T08:18:38.475Z,99470.27
2018-01-19T08:19:44.904Z,99473.14
2018-01-19T08:20:57.380Z,99468.39
2018-01-19T08:22:03.694Z,99478.98
2018-01-19T08:23:09.975Z,99481.06
2018-01-19T08:24:16.380Z,99481.92
2018-01-19T08:25:22.688Z,99485.63
2018-01-19T08:26:28.993Z,99486.61
2018-01-19T08:27:35.257Z,99484.00
2018-01-19T08:28:46.559Z,99487.44
2018-01-19T08:29:53.802Z,99478.14
2018-01-19T08:31:00.286Z,99489.28
2018-01-19T08:32:06.518Z,99490.05
2018-01-19T08:33:12.763Z,99496.11
2018-01-19T08:34:19.761Z,99492.45
2018-01-19T08:35:26.378Z,99497.00
2018-01-19T08:36:32.631Z,99498.14
2018-01-19T08:37:39.332Z,99500.45
2018-01-19T08:38:45.633Z,99490.78
2018-01-19T08:39:51.934Z,99495.98
2018-01-19T08:40:58.462Z,99499.38
2018-01-19T08:42:04.730Z,99503.27
2018-01-19T08:43:11.478Z,99503.23
2018-01-19T08:44:17.755Z,99510.60
2018-01-19T08:45:23.929Z,99510.47
2018-01-19T08:46:30.216Z,99515.89
2018-01-19T08:47:36.639Z,99523.05
2018-01-19T08:48:43.355Z,99526.94
2018-01-19T08:49:49.628Z,99529.86
2018-01-19T08:50:55.910Z,99521.89
2018-01-19T08:52:02.410Z,99530.75
2018-01-19T08:53:08.707Z,99532.44
2018-01-19T08:54:15.906Z,99530.92
2018-01-19T08:55:24.721Z,99534.83
2018-01-19T08:56:30.708Z,99546.22
2018-01-19T08:57:36.955Z,99543.48
2018-01-19T08:58:43.175Z,99547.31
2018-01-19T08:59:49.406Z,99551.50
2018-01-19T09:00:55.660Z,99551.41
2018-01-19T09:02:01.998Z,99550.51
2018-01-19T09:03:08.381Z,99544.55
2018-01-19T09:04:14.633Z,99550.13
2018-01-19T09:05:21.018Z,99550.98
2018-01-19T09:06:28.145Z,99560.47
2018-01-19T09:07:34.324Z,99558.20
2018-01-19T09:08:40.934Z,99558.62
2018-01-19T09:09:54.362Z,99564.73
2018-01-19T09:11:03.146Z,99561.34
2018-01-19T09:12:09.092Z,99558.78
2018-01-19T09:13:15.074Z,99558.01
2018-01-19T09:14:21.108Z,99564.63
2018-01-19T09:15:27.498Z,99565.46
2018-01-19T09:16:33.705Z,99569.13
2018-01-19T09:17:39.602Z,99569.47
2018-01-19T09:18:46.266Z,99565.27
2018-01-19T09:19:54.449Z,99568.73
2018-01-19T09:21:00.837Z,99569.36
2018-01-19T09:22:07.059Z,99574.23
2018-01-19T09:23:13.326Z,99573.07
2018-01-19T09:24:20.491Z,99576.58
2018-01-19T09:25:27.839Z,99575.02
2018-01-19T09:26:34.038Z,99573.56
2018-01-19T09:27:40.316Z,99583.30
2018-01-19T09:28:46.657Z,99574.52
2018-01-19T09:29:52.977Z,99576.25
2018-01-19T09:30:59.152Z,99572.95
2018-01-19T09:32:05.399Z,99576.70
2018-01-19T09:33:11.635Z,99574.88
2018-01-19T09:34:18.022Z,99574.63
2018-01-19T09:35:24.355Z,99574.97
2018-01-19T09:36:30.722Z,99577.78
2018-01-19T09:37:36.931Z,99580.37
2018-01-19T09:38:43.193Z,99575.63
2018-01-19T09:39:49.474Z,99580.24
2018-01-19T09:40:55.654Z,99577.20
2018-01-19T09:42:02.294Z,99578.09
2018-01-19T09:43:08.544Z,99582.06
2018-01-19T09:44:14.718Z,99585.20
2018-01-19T09:45:20.942Z,99584.38
2018-01-19T09:46:27.122Z,99586.64
2018-01-19T09:47:33.363Z,99589.17
2018-01-19T09:48:39.648Z,99590.86
2018-01-19T09:49:46.153Z,99591.86
2018-01-19T09:50:52.127Z,99589.97
2018-01-19T09:51:58.385Z,99594.35
2018-01-19T09:53:04.639Z,99591.13
2018-01-19T09:54:10.787Z,99590.84
2018-01-19T09:55:17.165Z,99592.67
2018-01-19T09:56:23.462Z,99595.20
2018-01-19T09:57:30.539Z,99601.02
2018-01-19T09:58:36.733Z,99598.95
2018-01-19T09:59:43.059Z,99599.39
2018-01-19T10:00:49.229Z,99598.92
2018-01-19T10:01:55.414Z,99604.08
2018-01-19T10:03:01.640Z,99601.56
2018-01-19T10:04:07.821Z,99603.65
2018-01-19T10:05:14.073Z,99604.82
2018-01-19T10:06:20.470Z,99610.89
2018-01-19T10:07:26.698Z,99601.37
2018-01-19T10:08:32.920Z,99609.28
2018-01-19T10:09:39.917Z,99612.82
2018-01-19T10:10:46.118Z,99612.95
2018-01-19T10:11:52.282Z,99620.27
2018-01-19T10:12:58.518Z,99616.95
2018-01-19T10:14:04.824Z,99617.36
2018-01-19T10:15:10.950Z,99620.59
2018-01-19T10:16:17.098Z,99621.24
2018-01-19T10:17:23.427Z,99617.36
2018-01-19T10:18:29.749Z,99620.22
2018-01-19T10:19:35.991Z,99617.69
2018-01-19T10:20:42.195Z,99620.16
2018-01-19T10:21:48.604Z,99626.56
2018-01-19T10:22:54.769Z,99626.55
2018-01-19T10:24:01.105Z,99625.93
2018-01-19T10:25:07.125Z,99626.92
2018-01-19T10:26:13.330Z,99622.03
2018-01-19T10:27:19.857Z,99621.92
2018-01-19T10:28:26.117Z,99617.86
2018-01-19T10:29:32.340Z,99624.05
2018-01-19T10:30:38.542Z,99620.24
2018-01-19T10:31:44.865Z,99621.94
2018-01-19T10:32:51.010Z,99618.37
2018-01-19T10:33:57.216Z,99626.64
2018-01-19T10:35:03.749Z,99617.41
2018-01-19T10:36:09.932Z,99620.97
2018-01-19T10:37:16.183Z,99616.11
2018-01-19T10:38:22.372Z,99617.61
2018-01-19T10:39:28.800Z,99618.56
2018-01-19T10:40:35.031Z,99621.97
2018-01-19T10:41:41.317Z,99624.42
2018-01-19T10:42:47.466Z,99624.33
2018-01-19T10:43:53.631Z,99620.19
2018-01-19T10:44:59.724Z,99622.65
2018-01-19T10:46:05.882Z,99620.91
2018-01-19T10:47:12.036Z,99625.45
2018-01-19T10:48:18.315Z,99623.88
2018-01-19T10:49:24.458Z,99626.81
2018-01-19T10:50:30.738Z,99623.41
2018-01-19T10:51:36.923Z,99622.46
2018-01-19T10:52:42.885Z,99625.58
2018-01-19T10:53:49.065Z,99625.30
2018-01-19T10:54:55.189Z,99627.78
2018-01-19T10:56:01.373Z,99628.74
2018-01-19T10:57:07.739Z,99629.41
2018-01-19T10:58:13.895Z,99627.11
2018-01-19T10:59:20.108Z,99628.33
2018-01-19T11:00:26.291Z,99626.59
2018-01-19T11:01:32.433Z,99629.41
2018-01-19T11:02:38.578Z,99631.17
2018-01-19T11:03:44.944Z,99627.57
2018-01-19T11:04:51.274Z,99636.67
2018-01-19T11:05:57.507Z,99632.67
2018-01-19T11:07:03.825Z,99633.82
2018-01-19T11:08:09.984Z,99639.57
2018-01-19T11:09:16.387Z,99639.55
2018-01-19T11:10:22.530Z,99641.98
2018-01-19T11:11:28.746Z,99637.03
2018-01-19T11:12:34.996Z,99642.38
2018-01-19T11:13:41.175Z,99639.17
2018-01-19T11:14:47.410Z,99641.77
2018-01-19T11:15:53.543Z,99641.84
2018-01-19T11:17:01.505Z,99641.33
2018-01-19T11:18:07.714Z,99643.17
2018-01-19T11:19:13.741Z,99642.74
2018-01-19T11:20:19.982Z,99640.97
2018-01-19T11:21:26.122Z,99641.80
2018-01-19T11:22:32.015Z,99639.20
2018-01-19T11:23:38.228Z,99644.22
2018-01-19T11:24:44.450Z,99648.64
2018-01-19T11:25:50.703Z,99649.09
2018-01-19T11:26:56.968Z,99649.41
2018-01-19T11:28:03.229Z,99646.50
2018-01-19T11:29:09.454Z,99647.77
2018-01-19T11:30:15.729Z,99649.77
2018-01-19T11:31:22.099Z,99646.29
2018-01-19T11:32:28.251Z,99643.37
2018-01-19T11:33:34.481Z,99641.55
2018-01-19T11:34:40.683Z,99647.48
2018-01-19T11:35:46.750Z,99647.05
2018-01-19T11:36:53.089Z,99642.94
2018-01-19T11:37:59.308Z,99650.37
2018-01-19T11:39:04.749Z,99645.16
2018-01-19T11:40:10.894Z,99650.50
2018-01-19T11:41:17.300Z,99649.28
2018-01-19T11:42:23.569Z,99647.87
2018-01-19T11:43:29.714Z,99639.50
2018-01-19T11:44:35.858Z,99653.50
2018-01-19T11:45:41.787Z,99650.92
2018-01-19T11:46:47.979Z,99648.77
2018-01-19T11:47:54.700Z,99654.56
2018-01-19T11:49:00.977Z,99651.06
2018-01-19T11:50:07.027Z,99648.88
2018-01-19T11:51:13.239Z,99658.44
2018-01-19T11:52:19.267Z,99657.31
2018-01-19T11:53:25.070Z,99659.65
2018-01-19T11:54:31.290Z,99652.86
2018-01-19T11:55:37.509Z,99660.94
2018-01-19T11:56:45.064Z,99655.61
2018-01-19T11:57:51.463Z,99657.55
2018-01-19T11:58:57.680Z,99664.06
2018-01-19T12:00:03.660Z,99660.38
2018-01-19T12:01:09.856Z,99662.07
2018-01-19T12:02:15.828Z,99661.83
2018-01-19T12:03:22.040Z,99663.80
2018-01-19T12:04:28.315Z,99666.66
2018-01-19T12:05:34.569Z,99662.11
2018-01-19T12:06:40.854Z,99663.23
2018-01-19T12:07:47.125Z,99662.41
2018-01-19T12:08:53.773Z,99663.61
2018-01-19T12:30:38.195Z,99672.53
2018-01-19T12:31:45.131Z,99673.09
2018-01-19T12:32:51.505Z,99674.28
2018-01-19T12:33:58.163Z,99676.80
2018-01-19T12:35:05.759Z,99670.90
2018-01-19T12:36:12.468Z,99662.55
2018-01-19T12:37:19.546Z,99671.26
2018-01-19T12:38:26.937Z,99673.05
2018-01-19T12:39:34.899Z,99673.49
2018-01-19T12:40:41.971Z,99667.90
2018-01-19T12:41:50.373Z,99681.09
2018-01-19T12:42:59.131Z,99673.64
2018-01-19T12:44:07.875Z,99678.67
2018-01-19T12:45:14.913Z,99672.32
2018-01-19T12:46:21.873Z,99675.11
2018-01-19T12:47:29.738Z,99673.48
2018-01-19T12:48:37.686Z,99670.70
2018-01-19T12:49:45.421Z,99678.16
2018-01-19T12:50:52.851Z,99679.05
2018-01-19T12:51:59.947Z,99672.78
2018-01-19T12:53:08.374Z,99677.77
2018-01-19T12:54:15.401Z,99677.20
2018-01-19T12:55:21.853Z,99675.56
2018-01-19T12:56:28.023Z,99681.66
2018-01-19T12:57:34.368Z,99679.91
2018-01-19T12:58:42.988Z,99684.48
2018-01-19T12:59:50.554Z,99682.48
2018-01-19T13:01:00.594Z,99684.03
2018-01-19T13:02:11.941Z,99687.45
2018-01-19T13:03:19.467Z,99694.08
2018-01-19T13:04:28.338Z,99700.92
2018-01-19T13:05:35.854Z,99692.70
2018-01-19T13:06:43.840Z,99690.72
2018-01-19T13:07:52.015Z,99697.63
2018-01-19T13:09:01.117Z,99702.94
2018-01-19T13:10:14.732Z,99701.04
2018-01-19T13:11:21.684Z,99704.13
2018-01-19T13:12:30.119Z,99707.08
2018-01-19T13:13:39.101Z,99701.80
2018-01-19T13:14:46.877Z,99708.19
2018-01-19T13:15:55.007Z,99699.64
2018-01-19T13:17:03.012Z,99702.58
2018-01-19T13:18:10.271Z,99705.78
2018-01-19T13:19:17.717Z,99703.63
2018-01-19T13:20:27.243Z,99703.55
2018-01-19T13:21:36.013Z,99708.07
2018-01-19T13:22:44.853Z,99703.17
2018-01-19T13:23:52.217Z,99702.52